createdAt,value
2023-03-02T00:00:04.591Z,100280.58
2023-03-02T00:02:32.553Z,100274.38
2023-03-02T00:04:59.562Z,100280.21
2023-03-02T00:07:33.571Z,100275.20
2023-03-02T00:10:00.917Z,100273.58
2023-03-02T00:12:27.856Z,100274.67
2023-03-02T00:14:55.614Z,100270.23
2023-03-02T00:17:27.609Z,100269.61
2023-03-02T00:20:09.767Z,100266.70
2023-03-02T00:22:39.462Z,100262.20
2023-03-02T00:25:06.632Z,100261.79
2023-03-02T00:27:34.732Z,100264.13
2023-03-02T00:30:01.567Z,100257.41
2023-03-02T00:32:28.894Z,100257.42
2023-03-02T00:34:55.708Z,100257.38
2023-03-02T00:37:25.113Z,100253.86
2023-03-02T00:39:52.682Z,100252.77
2023-03-02T00:42:20.125Z,100247.93
2023-03-02T00:44:47.077Z,100249.75
2023-03-02T00:47:13.977Z,100243.55
2023-03-02T00:49:41.772Z,100251.48
2023-03-02T00:52:09.982Z,100247.89
2023-03-02T00:54:36.966Z,100245.98
2023-03-02T00:57:04.431Z,100245.65
2023-03-02T00:59:37.172Z,100249.99
2023-03-02T01:02:26.354Z,100243.76
2023-03-02T01:04:53.627Z,100246.77
2023-03-02T01:07:20.827Z,100241.63
2023-03-02T01:09:50.501Z,100240.01
2023-03-02T01:12:22.143Z,100241.20
2023-03-02T01:14:50.341Z,100238.18
2023-03-02T01:17:18.512Z,100242.91
2023-03-02T01:19:47.603Z,100242.84
2023-03-02T01:22:14.872Z,100240.59
2023-03-02T01:24:42.918Z,100239.73
2023-03-02T01:27:09.602Z,100235.73
2023-03-02T01:29:36.821Z,100233.45
2023-03-02T01:32:03.949Z,100229.91
2023-03-02T01:34:30.966Z,100227.46
2023-03-02T01:36:59.281Z,100227.88
2023-03-02T01:39:25.903Z,100222.52
2023-03-02T01:41:52.755Z,100223.29
2023-03-02T01:44:42.027Z,100222.33
2023-03-02T01:47:20.917Z,100221.51
2023-03-02T01:50:30.317Z,100222.34
2023-03-02T01:52:59.904Z,100220.11
2023-03-02T01:55:28.993Z,100220.56
2023-03-02T01:57:55.594Z,100215.54
2023-03-02T02:00:27.674Z,100216.91
2023-03-02T02:02:54.712Z,100219.20
2023-03-02T02:05:26.306Z,100215.73
